Time;durP1;ratioP1;P1;durP2;ratioP2;P2;SDS_P1;SDS_P2;PMS_P1;PMS_P2;Temp;Humidity;BMP_temperature;BMP_pressure;BME280_temperature;BME280_humidity;BME280_pressure;Samples;Min_cycle;Max_cycle;Signal;HPM_P1;HPM_P2
2023/01/17 00:02:16;;;;;;;76.40;43.10;;;;;;;0.17;77.91;94620.27;107861;1265;99924;-74
2023/01/17 00:10:29;;;;;;;66.20;39.20;;;;;;;0.08;78.08;94611.94;108024;1264;103730;-76
2023/01/17 00:13:00;;;;;;;66.40;37.80;;;;;;;0.08;78.06;94612.02;107807;1263;101633;-74
2023/01/17 00:15:30;;;;;;;77.50;41.10;;;;;;;0.07;77.97;94612.19;107989;1264;99641;-74
2023/01/17 00:17:59;;;;;;;78.60;39.60;;;;;;;-0.02;78.09;94610.41;108011;1263;95688;-75
2023/01/17 00:26:19;;;;;;;80.80;41.10;;;;;;;-0.02;78.38;94625.92;108203;1260;101413;-74
2023/01/17 01:35:53;;;;;;;23.80;16.20;;;;;;;-0.03;79.19;94608.34;108612;1252;95690;-75
2023/01/17 01:38:24;;;;;;;25.80;15.90;;;;;;;-0.04;79.15;94606.39;108810;1255;95563;-75
2023/01/17 01:40:55;;;;;;;26.50;16.80;;;;;;;-0.06;79.11;94604.56;108860;1251;96131;-73
2023/01/17 01:43:45;;;;;;;26.00;15.70;;;;;;;-0.05;79.17;94604.95;108861;1251;104522;-74
2023/01/17 01:46:25;;;;;;;28.80;17.30;;;;;;;-0.03;79.19;94605.24;108630;1251;101288;-74
2023/01/17 01:49:19;;;;;;;28.90;17.40;;;;;;;-0.02;79.10;94609.03;108833;1251;99891;-76
2023/01/17 01:51:52;;;;;;;25.40;15.70;;;;;;;-0.06;79.12;94611.25;108853;1254;95830;-75
2023/01/17 01:54:26;;;;;;;29.90;17.50;;;;;;;-0.07;79.13;94609.45;108583;1251;96008;-74
2023/01/17 01:56:57;;;;;;;25.70;16.20;;;;;;;-0.05;79.26;94610.06;108892;1251;103610;-74
2023/01/17 01:59:25;;;;;;;26.90;15.80;;;;;;;-0.02;79.27;94608.88;108560;1252;100116;-74
2023/01/17 02:01:57;;;;;;;24.70;14.30;;;;;;;0.01;79.34;94608.06;108858;1251;99876;-76
2023/01/17 02:04:27;;;;;;;27.00;15.50;;;;;;;0.03;79.28;94614.20;108337;1251;95766;-75
2023/01/17 02:07:07;;;;;;;24.80;13.80;;;;;;;0.03;79.26;94611.34;108861;1251;96107;-74
2023/01/17 02:09:35;;;;;;;20.30;12.00;;;;;;;0.03;79.22;94606.16;108919;1251;103451;-74
2023/01/17 02:12:04;;;;;;;18.60;11.00;;;;;;;0.03;79.33;94600.98;108702;1251;100476;-74
2023/01/17 02:14:32;;;;;;;23.90;12.60;;;;;;;0.06;79.29;94601.77;108877;1251;98733;-75
2023/01/17 02:17:09;;;;;;;25.00;12.90;;;;;;;0.08;79.32;94603.48;108863;1255;95616;-74
2023/01/17 02:20:21;;;;;;;20.00;10.90;;;;;;;0.11;79.32;94607.88;108883;1251;96062;-73
2023/01/17 02:23:02;;;;;;;22.00;10.70;;;;;;;0.12;79.30;94607.01;108936;1251;103522;-74
2023/01/17 02:26:17;;;;;;;16.90;9.90;;;;;;;0.11;79.38;94605.23;108904;1251;101487;-74
2023/01/17 02:29:17;;;;;;;13.90;9.00;;;;;;;0.11;79.29;94596.75;108846;1251;99225;-74
2023/01/17 02:32:06;;;;;;;14.90;9.00;;;;;;;0.12;79.29;94593.70;108254;1258;95802;-74
2023/01/17 02:35:16;;;;;;;14.20;8.00;;;;;;;0.14;79.18;94587.15;108283;1258;96076;-74
2023/01/17 02:37:58;;;;;;;13.70;7.70;;;;;;;0.15;79.16;94588.37;107943;1264;103793;-74
2023/01/17 02:40:32;;;;;;;10.30;6.80;;;;;;;0.16;79.19;94591.02;107957;1264;101369;-74
2023/01/17 02:43:04;;;;;;;11.60;6.00;;;;;;;0.18;79.25;94590.44;107908;1265;100029;-74
2023/01/17 02:45:32;;;;;;;8.90;5.20;;;;;;;0.22;79.26;94593.44;107906;1264;95814;-75
2023/01/17 02:48:00;;;;;;;9.30;5.80;;;;;;;0.24;79.19;94592.30;107941;1267;96069;-74
2023/01/17 02:50:49;;;;;;;11.00;6.20;;;;;;;0.26;79.11;94582.15;107960;1264;103622;-75
2023/01/17 02:53:42;;;;;;;6.90;4.80;;;;;;;0.25;79.01;94590.25;107948;1264;101835;-74
2023/01/17 02:56:40;;;;;;;9.60;4.70;;;;;;;0.22;78.95;94604.05;107913;1265;99920;-73
2023/01/17 02:59:13;;;;;;;8.50;5.10;;;;;;;0.17;79.00;94615.13;107386;1270;95654;-74
2023/01/17 03:02:00;;;;;;;9.50;6.00;;;;;;;0.10;78.90;94609.96;107358;1271;96274;-74
2023/01/17 03:04:55;;;;;;;10.20;6.60;;;;;;;0.06;78.93;94613.38;107396;1271;103677;-74
2023/01/17 03:07:27;;;;;;;11.70;6.60;;;;;;;0.03;78.94;94612.79;107381;1271;101776;-74
2023/01/17 03:09:59;;;;;;;10.30;6.20;;;;;;;-0.01;79.02;94613.96;107668;1269;100165;-73
2023/01/17 03:12:33;;;;;;;11.40;6.40;;;;;;;-0.06;79.04;94624.66;107798;1266;95662;-74
2023/01/17 03:15:01;;;;;;;13.80;6.30;;;;;;;-0.11;79.07;94630.17;108086;1259;96474;-74
2023/01/17 03:17:33;;;;;;;10.50;6.30;;;;;;;-0.14;79.09;94632.73;108202;1259;103440;-73
2023/01/17 03:20:01;;;;;;;9.40;5.70;;;;;;;-0.13;79.21;94631.08;108181;1259;101148;-74
2023/01/17 03:22:29;;;;;;;10.50;6.10;;;;;;;-0.12;79.13;94626.19;108191;1259;99941;-74
2023/01/17 03:24:57;;;;;;;11.40;6.90;;;;;;;-0.10;79.16;94628.85;108216;1259;95609;-74
2023/01/17 03:27:25;;;;;;;12.10;7.20;;;;;;;-0.12;79.05;94630.33;108189;1260;96048;-76
2023/01/17 03:29:53;;;;;;;14.10;8.20;;;;;;;-0.14;79.01;94631.27;108091;1260;103530;-74
2023/01/17 03:32:21;;;;;;;10.20;6.70;;;;;;;-0.19;78.95;94635.59;108235;1259;101347;-76
2023/01/17 03:34:49;;;;;;;13.40;6.60;;;;;;;-0.24;78.82;94639.08;108237;1259;100104;-74
2023/01/17 03:37:17;;;;;;;11.80;6.80;;;;;;;-0.28;78.84;94636.99;108633;1256;95586;-75
2023/01/17 03:39:46;;;;;;;9.60;6.10;;;;;;;-0.27;78.93;94630.50;108827;1251;96092;-74
2023/01/17 03:42:14;;;;;;;15.00;6.60;;;;;;;-0.26;78.79;94631.45;108896;1251;103574;-73
2023/01/17 03:44:42;;;;;;;8.70;5.50;;;;;;;-0.27;78.82;94632.34;108882;1251;101244;-74
2023/01/17 03:47:10;;;;;;;8.30;5.70;;;;;;;-0.32;78.64;94631.46;108517;1254;99976;-75
2023/01/17 03:49:40;;;;;;;9.70;6.70;;;;;;;-0.37;78.71;94633.45;108719;1251;95823;-74
2023/01/17 03:52:08;;;;;;;6.70;4.70;;;;;;;-0.40;78.77;94631.63;108882;1251;96495;-74
2023/01/17 03:54:36;;;;;;;9.10;5.50;;;;;;;-0.43;78.79;94630.54;108694;1251;103577;-75
2023/01/17 03:57:05;;;;;;;6.80;5.40;;;;;;;-0.44;78.82;94633.14;108635;1251;101612;-74
2023/01/17 03:59:33;;;;;;;6.70;5.00;;;;;;;-0.44;78.77;94631.23;108930;1251;98941;-74
2023/01/17 04:02:01;;;;;;;9.30;5.80;;;;;;;-0.48;78.66;94628.92;108599;1254;95894;-74
2023/01/17 04:04:29;;;;;;;9.40;6.40;;;;;;;-0.52;78.69;94627.94;108788;1251;96055;-75
2023/01/17 04:06:57;;;;;;;8.50;6.20;;;;;;;-0.52;78.78;94622.11;108903;1255;102461;-74
2023/01/17 04:09:25;;;;;;;12.50;7.20;;;;;;;-0.53;78.65;94618.35;108882;1251;101416;-74
2023/01/17 04:11:54;;;;;;;9.80;5.90;;;;;;;-0.53;78.74;94626.23;108832;1251;100525;-75
2023/01/17 04:14:22;;;;;;;8.70;4.90;;;;;;;-0.57;78.73;94638.48;108659;1254;95891;-74
2023/01/17 04:16:50;;;;;;;11.10;5.90;;;;;;;-0.57;78.93;94644.36;108861;1251;96031;-74
2023/01/17 04:19:18;;;;;;;13.40;6.80;;;;;;;-0.55;79.03;94645.18;108654;1251;103581;-75
2023/01/17 04:21:46;;;;;;;13.10;7.00;;;;;;;-0.53;79.08;94644.89;108609;1251;100222;-74
2023/01/17 04:24:14;;;;;;;13.80;8.20;;;;;;;-0.51;79.07;94636.65;108815;1251;100004;-74
2023/01/17 04:26:42;;;;;;;13.70;7.60;;;;;;;-0.49;79.11;94638.52;108847;1251;95526;-73
2023/01/17 04:29:10;;;;;;;14.10;7.30;;;;;;;-0.49;79.02;94632.44;108866;1251;95998;-74
2023/01/17 04:31:38;;;;;;;16.40;10.70;;;;;;;-0.49;78.85;94633.55;108846;1251;103256;-74
2023/01/17 04:34:06;;;;;;;19.90;10.60;;;;;;;-0.51;78.93;94635.43;108722;1254;101074;-74
2023/01/17 04:36:34;;;;;;;16.10;9.60;;;;;;;-0.51;79.00;94639.30;108828;1250;100117;-74
2023/01/17 04:39:02;;;;;;;21.70;11.80;;;;;;;-0.52;79.01;94641.91;108770;1251;95594;-74
2023/01/17 04:41:31;;;;;;;19.10;11.60;;;;;;;-0.54;79.00;94649.75;108910;1251;95543;-75
2023/01/17 04:44:00;;;;;;;26.70;15.40;;;;;;;-0.56;79.07;94651.99;108655;1251;103063;-75
2023/01/17 04:46:28;;;;;;;32.70;19.20;;;;;;;-0.53;79.37;94649.09;108924;1251;101290;-75
2023/01/17 04:48:57;;;;;;;36.20;21.50;;;;;;;-0.48;79.32;94642.58;108839;1251;100046;-74
2023/01/17 04:51:25;;;;;;;27.00;15.20;;;;;;;-0.46;79.26;94640.81;108840;1251;95560;-73
2023/01/17 04:53:54;;;;;;;28.90;14.30;;;;;;;-0.42;79.34;94646.88;108563;1251;96102;-75
2023/01/17 04:56:22;;;;;;;14.90;9.70;;;;;;;-0.40;79.37;94654.83;108870;1251;103701;-75
2023/01/17 04:58:50;;;;;;;18.60;11.40;;;;;;;-0.37;79.38;94657.98;108684;1250;102431;-74
2023/01/17 05:01:18;;;;;;;30.60;18.80;;;;;;;-0.36;79.52;94657.13;108913;1251;100192;-74
2023/01/17 05:03:46;;;;;;;36.00;21.20;;;;;;;-0.36;79.43;94655.61;108847;1251;95832;-74
2023/01/17 05:06:14;;;;;;;29.40;18.30;;;;;;;-0.36;79.40;94654.19;108938;1251;96135;-74
2023/01/17 05:08:42;;;;;;;29.60;18.30;;;;;;;-0.36;79.32;94647.30;108831;1251;103794;-73
2023/01/17 05:11:10;;;;;;;32.30;19.10;;;;;;;-0.34;79.45;94643.57;108665;1251;102114;-74
2023/01/17 05:13:38;;;;;;;31.10;19.10;;;;;;;-0.33;79.45;94635.66;108677;1251;100049;-74
2023/01/17 05:16:07;;;;;;;33.10;19.80;;;;;;;-0.34;79.36;94636.11;108889;1251;95971;-75
2023/01/17 05:18:36;;;;;;;34.20;18.70;;;;;;;-0.34;79.44;94636.84;108540;1251;96088;-75
2023/01/17 05:21:05;;;;;;;37.60;23.00;;;;;;;-0.35;79.52;94639.38;108897;1251;112049;-75
2023/01/17 05:23:33;;;;;;;32.00;20.20;;;;;;;-0.37;79.56;94636.47;108667;1251;102122;-75
2023/01/17 05:26:01;;;;;;;31.20;17.60;;;;;;;-0.37;79.67;94630.54;108786;1251;99933;-74
2023/01/17 05:28:29;;;;;;;22.60;14.10;;;;;;;-0.33;79.73;94628.73;108831;1251;95615;-75
2023/01/17 05:30:57;;;;;;;33.80;15.90;;;;;;;-0.30;79.78;94621.54;108910;1251;96051;-74
2023/01/17 05:33:26;;;;;;;35.80;18.10;;;;;;;-0.26;79.76;94610.97;108845;1251;102668;-75
2023/01/17 05:35:54;;;;;;;25.30;14.30;;;;;;;-0.23;79.74;94607.60;108626;1254;101521;-74
2023/01/17 05:38:22;;;;;;;26.90;15.20;;;;;;;-0.19;79.78;94607.98;108735;1254;99986;-75
2023/01/17 05:40:50;;;;;;;28.60;15.80;;;;;;;-0.16;79.71;94621.27;108856;1251;95560;-74
2023/01/17 05:43:19;;;;;;;28.80;15.60;;;;;;;-0.16;79.77;94626.28;108820;1251;96371;-75
2023/01/17 05:45:48;;;;;;;36.10;19.90;;;;;;;-0.14;79.72;94636.35;108857;1251;103719;-74
2023/01/17 05:48:16;;;;;;;40.60;21.00;;;;;;;-0.15;79.84;94639.45;108900;1251;101174;-74
2023/01/17 05:50:44;;;;;;;38.70;18.90;;;;;;;-0.18;79.75;94642.81;108851;1251;99883;-76
2023/01/17 05:53:15;;;;;;;39.00;18.00;;;;;;;-0.18;79.82;94639.76;108891;1251;95543;-74
2023/01/17 05:55:43;;;;;;;27.50;15.70;;;;;;;-0.16;80.03;94643.30;108914;1251;96077;-74
2023/01/17 05:58:18;;;;;;;29.80;14.60;;;;;;;-0.16;79.96;94640.23;108878;1251;102258;-73
2023/01/17 06:00:47;;;;;;;23.10;13.00;;;;;;;-0.15;79.96;94638.23;108866;1251;101374;-75
2023/01/17 06:03:16;;;;;;;16.50;9.80;;;;;;;-0.13;80.06;94640.10;108843;1251;99939;-74
2023/01/17 06:05:45;;;;;;;20.50;11.60;;;;;;;-0.10;80.08;94638.81;108677;1251;95638;-75
2023/01/17 06:08:14;;;;;;;20.60;11.30;;;;;;;-0.06;80.17;94639.23;108676;1251;95997;-75
2023/01/17 06:10:43;;;;;;;18.90;11.80;;;;;;;-0.03;80.14;94638.65;108936;1251;103317;-75
2023/01/17 06:13:15;;;;;;;25.30;14.10;;;;;;;-0.00;80.06;94634.39;108901;1251;101485;-75
2023/01/17 06:15:43;;;;;;;29.60;14.10;;;;;;;0.03;80.10;94637.09;108856;1251;98859;-74
2023/01/17 06:18:14;;;;;;;42.00;17.40;;;;;;;0.05;80.14;94641.98;108514;1251;95928;-75
2023/01/17 06:20:42;;;;;;;36.50;15.80;;;;;;;0.04;80.12;94643.49;108955;1251;95985;-74
2023/01/17 06:23:13;;;;;;;35.80;17.00;;;;;;;0.05;80.12;94638.02;108885;1251;103591;-74
2023/01/17 06:25:43;;;;;;;27.90;14.70;;;;;;;0.04;80.12;94636.39;108869;1251;110469;-74
2023/01/17 06:28:14;;;;;;;32.30;15.50;;;;;;;0.05;80.12;94634.67;108836;1251;100134;-73
2023/01/17 06:30:43;;;;;;;27.80;16.50;;;;;;;0.06;80.12;94631.54;108777;1251;97038;-74
2023/01/17 06:33:13;;;;;;;32.10;16.60;;;;;;;0.08;80.20;94627.98;108622;1251;96074;-75
2023/01/17 06:35:48;;;;;;;29.40;16.70;;;;;;;0.10;80.31;94629.31;108827;1251;103188;-74
2023/01/17 06:38:16;;;;;;;30.50;17.40;;;;;;;0.13;80.24;94632.17;108853;1251;100261;-74
2023/01/17 06:40:44;;;;;;;29.10;16.10;;;;;;;0.16;80.14;94636.15;108816;1251;99908;-75
2023/01/17 06:43:12;;;;;;;36.50;20.20;;;;;;;0.19;80.23;94637.36;108847;1251;95591;-74
2023/01/17 06:45:41;;;;;;;28.60;16.90;;;;;;;0.20;80.21;94638.01;108844;1251;96020;-74
2023/01/17 06:48:09;;;;;;;27.40;16.00;;;;;;;0.22;80.13;94635.67;108912;1250;103646;-75
2023/01/17 06:50:37;;;;;;;27.60;14.50;;;;;;;0.23;80.15;94637.38;108868;1251;101170;-75
2023/01/17 06:53:06;;;;;;;24.20;14.10;;;;;;;0.25;80.19;94636.98;108715;1251;98945;-74
2023/01/17 06:55:38;;;;;;;28.60;15.50;;;;;;;0.27;80.21;94635.46;108845;1251;95534;-74
2023/01/17 06:58:08;;;;;;;29.60;17.10;;;;;;;0.29;80.22;94633.58;108857;1251;95581;-75
2023/01/17 07:00:36;;;;;;;32.80;18.60;;;;;;;0.34;80.25;94632.41;108868;1251;103473;-74
2023/01/17 07:03:04;;;;;;;30.20;18.40;;;;;;;0.36;80.25;94635.72;108851;1250;101271;-74
2023/01/17 07:05:35;;;;;;;33.80;20.60;;;;;;;0.38;80.26;94634.92;108881;1251;99776;-74
2023/01/17 07:08:03;;;;;;;36.20;20.00;;;;;;;0.42;80.48;94637.27;108825;1251;95659;-75
2023/01/17 07:10:31;;;;;;;40.10;22.10;;;;;;;0.46;80.47;94645.27;108907;1251;96014;-75
2023/01/17 07:12:59;;;;;;;38.20;21.40;;;;;;;0.50;80.36;94647.88;108926;1251;103433;-74
2023/01/17 07:15:28;;;;;;;40.10;22.20;;;;;;;0.54;80.35;94644.25;108905;1251;101115;-75
2023/01/17 07:17:56;;;;;;;40.80;22.70;;;;;;;0.57;80.32;94646.84;108858;1251;99835;-75
2023/01/17 07:20:24;;;;;;;41.70;23.60;;;;;;;0.59;80.21;94653.52;108851;1251;95872;-74
2023/01/17 07:22:52;;;;;;;48.80;26.10;;;;;;;0.62;80.25;94659.01;108826;1251;96031;-75
2023/01/17 07:25:20;;;;;;;45.90;27.20;;;;;;;0.65;80.35;94664.83;108491;1251;102616;-75
2023/01/17 07:27:48;;;;;;;44.90;26.40;;;;;;;0.68;80.32;94668.52;108789;1252;100522;-74
2023/01/17 07:30:17;;;;;;;53.10;28.70;;;;;;;0.72;80.32;94667.34;108443;1251;99465;-74
2023/01/17 07:32:51;;;;;;;57.40;29.70;;;;;;;0.74;80.24;94671.77;108490;1254;96650;-74
2023/01/17 07:35:20;;;;;;;47.20;25.40;;;;;;;0.75;80.21;94674.54;108805;1251;96431;-74
2023/01/17 07:37:49;;;;;;;45.20;25.30;;;;;;;0.75;80.26;94675.07;108633;1250;102813;-76
2023/01/17 07:40:19;;;;;;;48.30;28.10;;;;;;;0.77;80.26;94677.88;108837;1251;101464;-75
2023/01/17 07:42:48;;;;;;;52.30;28.30;;;;;;;0.81;80.39;94682.92;108484;1251;99346;-75
2023/01/17 07:45:17;;;;;;;60.30;33.70;;;;;;;0.84;80.40;94683.45;108800;1251;95607;-75
2023/01/17 07:47:45;;;;;;;65.30;33.10;;;;;;;0.87;80.36;94686.61;108865;1251;95743;-75
2023/01/17 07:50:14;;;;;;;65.00;34.20;;;;;;;0.90;80.38;94683.90;108907;1251;103438;-75
2023/01/17 07:52:42;;;;;;;56.40;31.00;;;;;;;0.94;80.36;94685.63;108889;1251;101325;-75
2023/01/17 07:55:10;;;;;;;55.30;28.80;;;;;;;0.97;80.51;94687.98;108851;1251;99894;-75
2023/01/17 07:57:38;;;;;;;55.20;28.80;;;;;;;0.99;80.55;94693.12;108869;1251;95506;-74
2023/01/17 08:00:08;;;;;;;43.80;26.20;;;;;;;1.02;80.62;94693.27;108905;1251;95981;-75
2023/01/17 08:02:36;;;;;;;49.40;25.70;;;;;;;1.04;80.77;94696.31;108887;1251;103255;-74
2023/01/17 08:05:04;;;;;;;47.60;27.10;;;;;;;1.07;80.83;94703.21;108889;1251;101334;-75
2023/01/17 08:07:32;;;;;;;48.20;26.90;;;;;;;1.08;80.78;94698.58;108814;1251;100172;-76
2023/01/17 08:10:00;;;;;;;50.40;26.60;;;;;;;1.09;81.01;94702.48;108753;1252;95584;-75
2023/01/17 08:12:29;;;;;;;57.50;29.10;;;;;;;1.12;80.98;94705.02;108597;1252;96077;-75
2023/01/17 08:14:57;;;;;;;56.30;28.50;;;;;;;1.16;81.02;94711.91;108799;1252;103157;-74
2023/01/17 08:17:25;;;;;;;62.00;30.50;;;;;;;1.19;81.06;94716.55;108830;1251;101532;-75
2023/01/17 08:19:53;;;;;;;60.20;31.20;;;;;;;1.18;81.00;94719.00;108652;1253;99965;-75
2023/01/17 08:22:21;;;;;;;65.90;33.00;;;;;;;1.17;81.19;94718.77;108573;1252;95585;-74
2023/01/17 08:24:50;;;;;;;51.80;27.80;;;;;;;1.20;81.24;94724.55;108759;1252;96047;-75
2023/01/17 08:27:18;;;;;;;55.00;28.80;;;;;;;1.25;81.28;94727.89;108807;1251;103496;-75
2023/01/17 08:29:47;;;;;;;45.70;26.30;;;;;;;1.29;81.36;94731.58;108454;1253;101309;-75
2023/01/17 08:32:16;;;;;;;39.80;23.60;;;;;;;1.32;81.29;94733.30;108719;1252;100063;-75
2023/01/17 08:34:44;;;;;;;33.00;21.30;;;;;;;1.35;81.22;94740.25;108791;1253;95600;-74
2023/01/17 08:37:12;;;;;;;35.60;21.50;;;;;;;1.38;81.22;94745.55;108769;1251;95995;-75
2023/01/17 08:39:40;;;;;;;35.20;20.50;;;;;;;1.39;81.25;94749.46;108561;1250;103457;-75
2023/01/17 08:42:08;;;;;;;32.70;19.90;;;;;;;1.41;81.31;94749.00;108772;1253;100116;-74
2023/01/17 08:44:37;;;;;;;36.30;21.50;;;;;;;1.42;81.32;94751.60;108748;1253;99621;-75
2023/01/17 08:47:05;;;;;;;40.00;23.30;;;;;;;1.44;81.29;94754.48;108472;1253;95675;-74
2023/01/17 08:49:34;;;;;;;41.50;24.90;;;;;;;1.46;81.36;94758.39;108746;1252;97117;-74
2023/01/17 08:52:02;;;;;;;45.30;24.20;;;;;;;1.48;81.44;94765.77;108790;1253;103660;-75
2023/01/17 08:54:30;;;;;;;50.20;26.20;;;;;;;1.50;81.47;94770.41;108761;1252;101754;-74
2023/01/17 08:56:58;;;;;;;45.30;24.00;;;;;;;1.50;81.47;94774.42;108561;1252;100012;-74
2023/01/17 08:59:26;;;;;;;57.40;29.30;;;;;;;1.51;81.57;94774.86;108726;1253;95538;-74
2023/01/17 09:01:56;;;;;;;50.20;27.40;;;;;;;1.51;81.76;94776.55;108674;1251;96070;-74
2023/01/17 09:04:25;;;;;;;44.40;24.50;;;;;;;1.54;81.74;94778.12;108745;1252;102531;-74
2023/01/17 09:06:53;;;;;;;39.00;21.20;;;;;;;1.59;81.75;94779.25;108780;1252;101101;-74
2023/01/17 09:09:21;;;;;;;44.40;24.70;;;;;;;1.63;81.91;94777.11;108714;1252;99938;-74
2023/01/17 09:11:49;;;;;;;49.90;28.10;;;;;;;1.69;81.89;94770.27;108710;1253;95769;-75
2023/01/17 09:14:17;;;;;;;45.80;25.00;;;;;;;1.74;82.08;94768.41;108755;1251;96025;-75
2023/01/17 09:16:45;;;;;;;40.40;22.50;;;;;;;1.81;81.98;94777.55;108750;1252;103635;-74
2023/01/17 09:19:13;;;;;;;39.20;23.70;;;;;;;1.88;81.98;94788.52;108492;1254;101394;-75
2023/01/17 09:21:41;;;;;;;47.10;26.90;;;;;;;1.94;82.04;94787.19;108764;1252;99973;-74
2023/01/17 09:24:10;;;;;;;55.10;30.40;;;;;;;2.01;82.24;94785.20;108754;1253;95837;-74
2023/01/17 09:26:38;;;;;;;57.90;31.20;;;;;;;2.06;82.31;94781.04;108805;1252;96022;-74
2023/01/17 09:29:06;;;;;;;59.80;29.20;;;;;;;2.10;82.21;94768.34;108777;1252;103641;-74
2023/01/17 09:31:34;;;;;;;76.00;41.40;;;;;;;2.14;82.17;94756.52;108771;1251;101347;-74
2023/01/17 09:34:03;;;;;;;43.70;24.60;;;;;;;2.15;82.12;94747.73;108576;1254;99905;-74
2023/01/17 09:36:32;;;;;;;28.50;18.20;;;;;;;2.20;82.18;94744.59;108766;1251;95546;-74
2023/01/17 09:39:02;;;;;;;24.80;13.30;;;;;;;2.28;82.14;94746.63;108860;1251;96154;-74
2023/01/17 09:41:49;;;;;;;22.30;11.70;;;;;;;2.34;82.15;94752.73;108600;1251;103610;-73
2023/01/17 09:44:32;;;;;;;17.20;10.90;;;;;;;2.41;82.15;94749.23;108814;1251;101363;-74
2023/01/17 09:47:12;;;;;;;28.10;16.80;;;;;;;2.48;82.25;94746.27;108799;1253;99537;-74
2023/01/17 09:49:43;;;;;;;36.10;20.40;;;;;;;2.53;82.20;94741.79;108750;1252;95916;-73
2023/01/17 09:52:19;;;;;;;50.10;26.30;;;;;;;2.62;82.32;94748.23;108807;1251;95732;-74
2023/01/17 09:54:49;;;;;;;51.50;27.30;;;;;;;2.68;82.36;94755.53;108789;1253;103732;-75
2023/01/17 09:57:37;;;;;;;60.60;28.10;;;;;;;2.73;82.27;94756.99;108786;1253;101412;-74
2023/01/17 10:00:50;;;;;;;47.30;25.00;;;;;;;2.78;82.29;94752.52;108742;1252;99478;-73
2023/01/17 10:03:53;;;;;;;;;;;;;;;2.83;82.29;94753.57;108746;1253;95642;-74
2023/01/17 10:06:40;;;;;;;;;;;;;;;2.88;82.30;94761.70;108454;1256;95754;-73
2023/01/17 10:09:37;;;;;;;31.80;19.00;;;;;;;2.93;82.31;94756.23;108453;1256;103607;-73
2023/01/17 10:12:20;;;;;;;29.10;16.80;;;;;;;3.01;82.38;94750.52;108422;1256;100286;-74
2023/01/17 10:15:25;;;;;;;25.90;16.00;;;;;;;3.08;82.32;94747.19;108431;1256;99798;-74
2023/01/17 10:18:28;;;;;;;23.00;13.00;;;;;;;3.26;82.30;94752.56;108409;1255;95703;-73
2023/01/17 10:21:14;;;;;;;13.80;8.90;;;;;;;3.48;82.34;94755.31;107909;1263;95672;-74
2023/01/17 10:24:02;;;;;;;11.90;8.10;;;;;;;3.63;82.30;94758.39;107985;1263;103493;-74
2023/01/17 10:26:33;;;;;;;14.20;8.70;;;;;;;3.74;81.89;94761.15;107971;1263;101413;-74
2023/01/17 10:29:05;;;;;;;15.90;9.80;;;;;;;3.81;81.54;94754.38;107948;1264;100244;-74
2023/01/17 10:31:42;;;;;;;17.20;8.60;;;;;;;3.91;81.56;94751.23;107931;1263;97186;-73
2023/01/17 10:34:24;;;;;;;11.80;7.40;;;;;;;4.09;81.54;94747.92;107984;1263;96081;-74
2023/01/17 10:37:02;;;;;;;9.30;6.70;;;;;;;4.36;81.52;94745.26;107982;1263;103085;-74
2023/01/17 10:39:31;;;;;;;13.80;7.40;;;;;;;4.68;81.33;94749.13;107984;1263;101275;-74
2023/01/17 10:42:06;;;;;;;18.80;11.70;;;;;;;4.95;80.92;94756.14;108237;1258;100202;-74
2023/01/17 10:45:09;;;;;;;22.90;11.60;;;;;;;5.12;80.50;94757.22;108191;1259;95592;-74
2023/01/17 10:47:38;;;;;;;17.90;10.60;;;;;;;5.20;79.97;94761.54;107911;1264;96005;-75
2023/01/17 10:50:10;;;;;;;17.60;9.70;;;;;;;5.23;79.54;94764.27;107903;1265;103502;-73
2023/01/17 10:53:02;;;;;;;17.70;10.00;;;;;;;5.21;79.05;94761.49;107961;1264;101559;-73
2023/01/17 10:55:44;;;;;;;15.30;9.10;;;;;;;5.18;78.61;94761.63;107912;1264;99878;-73
2023/01/17 10:58:13;;;;;;;13.70;7.80;;;;;;;5.21;78.29;94759.68;108027;1260;95635;-74
2023/01/17 11:00:48;;;;;;;12.70;6.40;;;;;;;5.25;78.16;94749.91;107998;1260;96447;-74
2023/01/17 11:03:19;;;;;;;11.20;7.10;;;;;;;5.33;78.07;94744.05;108063;1260;103442;-74
2023/01/17 11:06:22;;;;;;;12.00;7.20;;;;;;;5.56;78.35;94731.28;108110;1260;100454;-74
2023/01/17 11:08:55;;;;;;;12.30;6.70;;;;;;;5.99;78.38;94724.64;108110;1260;100126;-74
2023/01/17 11:11:28;;;;;;;;;;;;;;;6.52;78.48;94716.88;108096;1260;95955;-74
2023/01/17 11:14:02;;;;;;;12.70;7.90;;;;;;;6.92;77.20;94719.02;108154;1260;96184;-74
2023/01/17 11:16:33;;;;;;;13.90;8.00;;;;;;;7.25;76.58;94728.06;108129;1260;103300;-74
2023/01/17 11:19:27;;;;;;;13.80;8.40;;;;;;;7.67;76.40;94731.60;108017;1260;99467;-74
2023/01/17 11:22:01;;;;;;;11.40;7.40;;;;;;;8.13;75.51;94743.12;108217;1259;99587;-74
2023/01/17 11:24:40;;;;;;;13.30;7.50;;;;;;;8.53;74.54;94743.23;108268;1261;95708;-75
2023/01/17 11:27:24;;;;;;;16.40;9.90;;;;;;;8.83;73.85;94735.98;108818;1251;96061;-75
2023/01/17 11:30:18;;;;;;;15.60;9.70;;;;;;;9.01;73.20;94734.95;108763;1252;103045;-74
2023/01/17 11:32:55;;;;;;;19.80;9.90;;;;;;;9.29;72.87;94722.88;108779;1253;101409;-74
2023/01/17 11:35:31;;;;;;;12.90;7.60;;;;;;;9.58;72.21;94724.23;108833;1251;99318;-74
2023/01/17 11:38:02;;;;;;;10.20;6.40;;;;;;;9.90;71.65;94733.58;108816;1251;97441;-75
2023/01/17 11:40:44;;;;;;;8.70;5.00;;;;;;;10.04;69.73;94732.79;108841;1251;96137;-75
2023/01/17 11:43:14;;;;;;;4.90;3.60;;;;;;;10.15;69.54;94733.16;108787;1253;103462;-75
2023/01/17 11:45:42;;;;;;;6.10;3.80;;;;;;;10.36;68.88;94732.74;108749;1253;101325;-75
2023/01/17 11:48:10;;;;;;;5.80;3.00;;;;;;;10.58;68.68;94732.27;108481;1251;99962;-74
2023/01/17 11:50:57;;;;;;;5.50;3.40;;;;;;;10.81;68.27;94726.84;108713;1252;95900;-75
2023/01/17 11:53:28;;;;;;;5.60;3.60;;;;;;;11.02;67.51;94719.81;108791;1252;95718;-75
2023/01/17 11:56:04;;;;;;;6.00;3.80;;;;;;;11.24;66.96;94715.69;108553;1253;103542;-75
2023/01/17 11:58:38;;;;;;;6.40;4.20;;;;;;;11.38;66.70;94717.95;108742;1252;100384;-75
2023/01/17 12:01:09;;;;;;;6.90;4.60;;;;;;;11.47;66.10;94726.59;108737;1252;98452;-75
2023/01/17 12:04:01;;;;;;;8.00;4.80;;;;;;;11.56;65.27;94730.05;108733;1252;95578;-75
2023/01/17 12:06:45;;;;;;;8.80;4.70;;;;;;;11.67;64.85;94728.55;108670;1251;96530;-76
2023/01/17 12:09:43;;;;;;;8.00;4.50;;;;;;;11.72;64.02;94726.55;108794;1252;103643;-75
2023/01/17 12:15:32;;;;;;;7.60;5.10;;;;;;;11.72;62.57;94733.73;108302;1256;99961;-74
2023/01/17 12:18:12;;;;;;;7.90;4.50;;;;;;;11.76;61.27;94727.83;108344;1256;95639;-76
2023/01/17 12:20:55;;;;;;;6.90;3.80;;;;;;;11.72;61.47;94721.73;108393;1258;95971;-75
2023/01/17 12:23:41;;;;;;;7.50;4.00;;;;;;;11.78;61.01;94718.64;108427;1256;103268;-75
2023/01/17 12:26:32;;;;;;;5.30;3.40;;;;;;;11.78;60.85;94720.96;108391;1256;101316;-75
2023/01/17 12:29:42;;;;;;;4.60;3.10;;;;;;;11.80;60.19;94714.30;108274;1256;99002;-75
2023/01/17 12:32:25;;;;;;;8.00;3.70;;;;;;;11.72;59.77;94708.93;108333;1256;96962;-75
2023/01/17 12:35:00;;;;;;;6.40;3.20;;;;;;;11.54;59.19;94711.41;108408;1256;96163;-75
2023/01/17 12:37:39;;;;;;;4.50;2.80;;;;;;;11.43;59.06;94712.75;108402;1256;103054;-75
2023/01/17 12:40:28;;;;;;;3.80;2.90;;;;;;;11.38;59.40;94711.14;108418;1256;100210;-75
2023/01/17 12:43:04;;;;;;;4.70;3.30;;;;;;;11.37;59.38;94711.64;108340;1256;100033;-75
2023/01/17 12:45:41;;;;;;;4.90;3.20;;;;;;;11.38;59.11;94714.17;107901;1256;348956;-75
2023/01/17 12:48:20;;;;;;;5.60;3.60;;;;;;;11.29;59.12;94714.46;108380;1256;96011;-75
2023/01/17 12:51:04;;;;;;;6.00;3.40;;;;;;;11.15;58.59;94713.36;108365;1256;102549;-75
2023/01/17 12:53:56;;;;;;;6.60;4.00;;;;;;;11.08;58.40;94713.52;108739;1253;100874;-75
2023/01/17 12:56:49;;;;;;;12.20;6.70;;;;;;;10.98;58.30;94710.50;108761;1252;98642;-75
2023/01/17 13:00:02;;;;;;;7.10;4.80;;;;;;;10.96;58.23;94714.79;108761;1252;95586;-75
2023/01/17 13:02:51;;;;;;;6.70;4.50;;;;;;;10.97;58.08;94723.69;108305;1257;96056;-75
2023/01/17 13:05:31;;;;;;;7.90;4.80;;;;;;;10.99;58.06;94719.61;108291;1258;103920;-75
2023/01/17 13:08:23;;;;;;;6.40;4.20;;;;;;;10.97;57.91;94719.32;108277;1259;100281;-75